createdAt,value
2022-08-31T00:00:10.268Z,2.80
2022-08-31T00:02:57.111Z,3.20
2022-08-31T00:07:51.666Z,2.92
2022-08-31T00:10:31.972Z,2.80
2022-08-31T00:13:03.814Z,3.00
2022-08-31T00:15:30.667Z,2.95
2022-08-31T00:17:58.231Z,3.05
2022-08-31T00:20:33.989Z,2.90
2022-08-31T00:25:30.103Z,2.90
2022-08-31T00:27:56.673Z,2.95
2022-08-31T00:30:23.436Z,2.85
2022-08-31T00:32:50.278Z,3.30
2022-08-31T00:35:16.924Z,2.83
2022-08-31T00:37:43.672Z,3.30
2022-08-31T00:40:11.381Z,3.10
2022-08-31T00:42:38.181Z,3.05
2022-08-31T00:45:06.835Z,3.13
2022-08-31T00:47:33.400Z,2.85
2022-08-31T00:50:00.923Z,3.08
2022-08-31T00:52:37.510Z,3.20
2022-08-31T00:55:21.036Z,3.13
2022-08-31T00:57:54.483Z,2.88
2022-08-31T01:00:26.326Z,3.00
2022-08-31T01:02:54.852Z,3.10
2022-08-31T01:05:21.558Z,3.20
2022-08-31T01:07:50.502Z,3.10
2022-08-31T01:10:21.934Z,2.95
2022-08-31T01:12:54.482Z,3.17
2022-08-31T01:15:21.980Z,2.67
2022-08-31T01:17:52.399Z,2.65
2022-08-31T01:20:56.588Z,3.83
2022-08-31T01:23:27.675Z,3.60
2022-08-31T01:25:58.264Z,3.72
2022-08-31T01:28:25.901Z,3.40
2022-08-31T01:31:35.210Z,3.38
2022-08-31T01:34:03.840Z,3.10
2022-08-31T01:36:32.558Z,2.90
2022-08-31T01:38:59.082Z,3.10
2022-08-31T01:41:25.593Z,3.30
2022-08-31T01:43:53.022Z,3.15
2022-08-31T01:46:19.827Z,3.05
2022-08-31T01:48:48.105Z,3.05
2022-08-31T01:51:19.370Z,2.90
2022-08-31T01:53:48.794Z,3.28
2022-08-31T01:56:24.795Z,2.90
2022-08-31T01:58:51.756Z,2.70
2022-08-31T02:01:32.583Z,3.50
2022-08-31T02:04:00.431Z,3.50
2022-08-31T02:06:27.017Z,3.33
2022-08-31T02:08:53.700Z,3.00
2022-08-31T02:11:20.281Z,2.95
2022-08-31T02:13:46.775Z,2.92
2022-08-31T02:16:13.643Z,3.03
2022-08-31T02:18:40.294Z,3.30
2022-08-31T02:21:07.446Z,3.20
2022-08-31T02:23:34.578Z,2.83
2022-08-31T02:26:01.413Z,3.67
2022-08-31T02:28:27.923Z,5.00
2022-08-31T02:30:54.476Z,4.80
2022-08-31T02:33:21.054Z,4.18
2022-08-31T02:35:50.298Z,4.07
2022-08-31T02:38:22.871Z,4.00
2022-08-31T02:40:51.549Z,4.00
2022-08-31T02:43:24.426Z,3.95
2022-08-31T02:45:55.724Z,4.20
2022-08-31T02:48:22.474Z,3.55
2022-08-31T02:50:52.238Z,3.88
2022-08-31T02:53:22.910Z,3.67
2022-08-31T02:55:50.115Z,3.53
2022-08-31T02:58:20.716Z,4.22
2022-08-31T03:00:50.127Z,3.72
2022-08-31T03:03:17.724Z,3.42
2022-08-31T03:05:44.627Z,3.88
2022-08-31T03:08:11.148Z,3.97
2022-08-31T03:10:37.679Z,3.47
2022-08-31T03:13:04.386Z,4.20
2022-08-31T03:15:31.541Z,3.90
2022-08-31T03:17:58.152Z,3.38
2022-08-31T03:20:27.201Z,3.60
2022-08-31T03:22:54.806Z,3.80
2022-08-31T03:25:22.233Z,3.50
2022-08-31T03:27:49.054Z,3.72
2022-08-31T03:30:19.609Z,3.60
2022-08-31T03:32:48.347Z,3.80
2022-08-31T03:35:15.814Z,3.78
2022-08-31T03:37:42.375Z,3.70
2022-08-31T03:40:10.182Z,3.83
2022-08-31T03:42:37.032Z,3.60
2022-08-31T03:45:04.866Z,3.50
2022-08-31T03:47:31.390Z,4.10
2022-08-31T03:49:58.623Z,4.15
2022-08-31T03:52:25.534Z,3.67
2022-08-31T03:54:52.052Z,4.05
2022-08-31T03:57:18.568Z,3.80
2022-08-31T03:59:45.080Z,3.88
2022-08-31T04:02:11.601Z,3.58
2022-08-31T04:04:38.168Z,3.42
2022-08-31T04:07:04.767Z,3.78
2022-08-31T04:09:31.317Z,3.80
2022-08-31T04:11:57.821Z,3.97
2022-08-31T04:14:24.306Z,4.50
2022-08-31T04:16:50.899Z,3.45
2022-08-31T04:19:17.480Z,3.95
2022-08-31T04:21:44.550Z,3.83
2022-08-31T04:24:11.958Z,3.83
2022-08-31T04:26:40.853Z,3.60
2022-08-31T04:29:12.854Z,3.92
2022-08-31T04:31:40.489Z,3.70
2022-08-31T04:34:08.151Z,3.70
2022-08-31T04:36:35.513Z,3.88
2022-08-31T04:39:04.311Z,3.80
2022-08-31T04:41:35.058Z,3.90
2022-08-31T04:44:03.771Z,4.40
2022-08-31T04:46:32.752Z,4.00
2022-08-31T04:48:59.583Z,4.10
2022-08-31T04:51:31.842Z,4.18
2022-08-31T04:53:58.829Z,3.88
2022-08-31T04:56:29.483Z,4.05
2022-08-31T04:59:06.229Z,5.07
2022-08-31T05:01:43.433Z,4.30
2022-08-31T05:04:14.076Z,4.55
2022-08-31T05:06:44.588Z,4.57
2022-08-31T05:09:20.031Z,4.25
2022-08-31T05:11:47.224Z,4.35
2022-08-31T05:14:14.311Z,3.90
2022-08-31T05:16:42.676Z,4.35
2022-08-31T05:19:09.623Z,4.25
2022-08-31T05:21:40.617Z,4.05
2022-08-31T05:24:22.433Z,6.10
2022-08-31T05:26:53.653Z,5.93
2022-08-31T05:29:25.093Z,4.47
2022-08-31T05:31:52.788Z,5.05
2022-08-31T05:34:21.725Z,3.92
2022-08-31T05:36:55.498Z,4.03
2022-08-31T05:39:22.070Z,4.38
2022-08-31T05:41:49.005Z,4.75
2022-08-31T05:44:17.403Z,4.68
2022-08-31T05:46:44.180Z,4.45
2022-08-31T05:49:11.663Z,4.35
2022-08-31T05:51:39.681Z,8.10
2022-08-31T05:54:07.886Z,4.80
2022-08-31T05:56:35.599Z,4.63
2022-08-31T05:59:02.411Z,4.95
2022-08-31T06:01:38.721Z,4.78
2022-08-31T06:04:07.714Z,4.95
2022-08-31T06:06:34.793Z,6.47
2022-08-31T06:09:01.397Z,5.32
2022-08-31T06:11:30.968Z,4.40
2022-08-31T06:14:01.923Z,4.78
2022-08-31T06:16:30.359Z,4.35
2022-08-31T06:18:58.278Z,5.53
2022-08-31T06:21:33.693Z,4.80
2022-08-31T06:24:03.320Z,4.53
2022-08-31T06:26:33.972Z,4.72
2022-08-31T06:29:05.513Z,4.70
2022-08-31T06:31:38.582Z,4.72
2022-08-31T06:34:07.086Z,4.38
2022-08-31T06:36:35.112Z,5.05
2022-08-31T06:39:02.335Z,4.93
2022-08-31T06:41:36.768Z,5.15
2022-08-31T06:44:08.598Z,5.13
2022-08-31T06:46:37.543Z,5.10
2022-08-31T06:49:05.979Z,4.95
2022-08-31T06:51:37.814Z,5.22
2022-08-31T06:54:28.668Z,4.90
2022-08-31T06:56:59.646Z,5.30
2022-08-31T06:59:29.214Z,5.20
2022-08-31T07:02:00.208Z,4.75
2022-08-31T07:04:27.806Z,5.60
2022-08-31T07:06:54.472Z,5.60
2022-08-31T07:09:20.989Z,5.90
2022-08-31T07:11:52.013Z,5.80
2022-08-31T07:14:23.577Z,4.60
2022-08-31T07:16:56.499Z,4.03
2022-08-31T07:19:24.110Z,4.20
2022-08-31T07:22:00.309Z,4.55
2022-08-31T07:24:31.367Z,4.40
2022-08-31T07:27:02.899Z,3.85
2022-08-31T07:29:37.529Z,4.20
2022-08-31T07:32:04.124Z,3.95
2022-08-31T07:34:33.459Z,3.90
2022-08-31T07:37:19.649Z,4.35
2022-08-31T07:40:07.789Z,4.25
2022-08-31T07:42:43.617Z,4.18
2022-08-31T07:47:55.114Z,4.20
2022-08-31T07:50:23.453Z,3.85
2022-08-31T07:52:54.756Z,4.35
2022-08-31T07:55:24.630Z,3.78
2022-08-31T07:57:54.764Z,3.50
2022-08-31T08:00:26.450Z,3.78
2022-08-31T08:02:54.459Z,3.30
2022-08-31T08:05:27.480Z,3.75
2022-08-31T08:08:03.650Z,3.63
2022-08-31T08:10:31.649Z,3.03
2022-08-31T08:13:04.836Z,3.22
2022-08-31T08:15:35.444Z,3.47
2022-08-31T08:18:04.518Z,3.50
2022-08-31T08:20:37.410Z,3.13
2022-08-31T08:23:14.540Z,3.35
2022-08-31T08:25:43.671Z,3.90
2022-08-31T08:28:38.169Z,3.50
2022-08-31T08:31:07.087Z,4.10
2022-08-31T08:33:35.596Z,3.42
2022-08-31T08:36:07.627Z,5.22
2022-08-31T08:38:38.990Z,3.78
2022-08-31T08:41:12.978Z,4.43
2022-08-31T08:43:50.072Z,4.45
2022-08-31T08:46:35.650Z,3.83
2022-08-31T08:49:28.356Z,3.83
2022-08-31T08:52:11.666Z,4.60
2022-08-31T08:54:46.601Z,4.10
2022-08-31T08:57:20.904Z,3.75
2022-08-31T08:59:49.375Z,4.03
2022-08-31T09:02:23.146Z,4.47
2022-08-31T09:05:12.023Z,3.55
2022-08-31T09:07:50.906Z,3.63
2022-08-31T09:10:42.242Z,3.47
2022-08-31T09:13:30.139Z,3.55
2022-08-31T09:16:21.898Z,3.95
2022-08-31T09:19:08.394Z,3.05
2022-08-31T09:21:42.328Z,3.25
2022-08-31T09:24:21.593Z,3.60
2022-08-31T09:26:58.495Z,3.28
2022-08-31T09:29:31.264Z,3.78
2022-08-31T09:32:09.054Z,3.53
2022-08-31T09:34:41.229Z,3.75
2022-08-31T09:37:28.810Z,3.45
2022-08-31T09:39:56.423Z,3.67
2022-08-31T09:42:32.246Z,4.13
2022-08-31T09:45:15.626Z,3.53
2022-08-31T09:47:52.252Z,3.60
2022-08-31T09:50:31.461Z,3.78
2022-08-31T09:53:44.924Z,3.30
2022-08-31T09:56:19.762Z,3.75
2022-08-31T09:58:50.288Z,3.63
2022-08-31T10:01:37.874Z,3.42
2022-08-31T10:04:27.970Z,3.45
2022-08-31T10:07:29.952Z,3.33
2022-08-31T10:10:31.037Z,3.63
2022-08-31T10:13:22.867Z,3.70
2022-08-31T10:16:02.169Z,4.10
2022-08-31T10:18:55.969Z,3.45
2022-08-31T10:21:39.540Z,3.85
2022-08-31T10:24:33.293Z,3.40
2022-08-31T10:27:31.363Z,3.20
2022-08-31T10:30:05.620Z,3.78
2022-08-31T10:33:08.454Z,3.83
2022-08-31T10:35:54.952Z,3.53
2022-08-31T10:38:34.465Z,3.58
2022-08-31T10:41:16.250Z,3.35
2022-08-31T10:44:26.382Z,3.35
2022-08-31T10:47:02.584Z,3.50
2022-08-31T10:52:17.168Z,3.47
2022-08-31T10:55:06.654Z,3.40
2022-08-31T10:57:56.266Z,3.17
2022-08-31T11:00:47.460Z,3.03
2022-08-31T11:03:48.960Z,3.30
2022-08-31T11:07:06.636Z,3.15
2022-08-31T11:09:54.940Z,3.20
2022-08-31T11:12:33.274Z,3.33
2022-08-31T11:15:44.120Z,3.25
2022-08-31T11:18:50.573Z,2.92
2022-08-31T11:22:14.106Z,3.20
2022-08-31T11:25:07.467Z,3.03
2022-08-31T11:27:55.143Z,3.10
2022-08-31T11:30:32.662Z,2.85
2022-08-31T11:33:06.866Z,2.90
2022-08-31T11:36:06.057Z,2.95
2022-08-31T11:38:54.710Z,2.97
2022-08-31T11:41:47.708Z,3.40
2022-08-31T11:44:33.281Z,3.17
2022-08-31T11:50:02.310Z,3.22
2022-08-31T11:52:40.962Z,2.83
2022-08-31T11:55:28.587Z,3.00
2022-08-31T11:58:07.523Z,2.88
2022-08-31T12:00:58.817Z,3.00
2022-08-31T12:04:03.179Z,2.88
2022-08-31T12:06:32.081Z,2.97
2022-08-31T12:09:36.638Z,2.58
2022-08-31T12:12:32.371Z,2.85
2022-08-31T12:15:37.718Z,2.70
2022-08-31T12:18:38.447Z,2.97
2022-08-31T12:21:59.537Z,2.53
2022-08-31T12:25:02.226Z,2.80
2022-08-31T12:27:40.660Z,2.72
2022-08-31T12:30:36.598Z,2.33
2022-08-31T12:33:17.957Z,2.50
2022-08-31T12:35:49.220Z,2.65
2022-08-31T12:38:23.211Z,2.67
2022-08-31T12:40:57.870Z,2.90
2022-08-31T12:43:39.606Z,3.08
2022-08-31T12:46:33.439Z,2.55
2022-08-31T12:49:51.410Z,2.25
2022-08-31T12:52:39.424Z,2.53
2022-08-31T12:55:12.602Z,3.20
2022-08-31T12:57:50.645Z,3.45
2022-08-31T13:00:38.728Z,3.40
2022-08-31T13:03:28.956Z,2.67
2022-08-31T13:06:13.518Z,3.00
2022-08-31T13:08:50.255Z,2.40
2022-08-31T13:11:41.443Z,3.17
2022-08-31T13:14:13.024Z,2.55
2022-08-31T13:16:50.074Z,2.47
2022-08-31T13:19:30.226Z,3.00
2022-08-31T13:22:06.683Z,3.08
2022-08-31T13:24:41.283Z,2.88
2022-08-31T13:27:20.927Z,2.88
2022-08-31T13:29:50.884Z,2.60
2022-08-31T13:32:32.197Z,2.80
2022-08-31T13:35:13.993Z,2.78
2022-08-31T13:38:05.481Z,2.80
2022-08-31T13:40:39.901Z,2.88
2022-08-31T13:43:10.582Z,2.20
2022-08-31T13:45:58.090Z,2.58
2022-08-31T13:48:40.558Z,3.10
2022-08-31T13:51:18.273Z,2.65
2022-08-31T13:54:07.807Z,2.70
2022-08-31T13:56:55.460Z,2.78
2022-08-31T13:59:24.782Z,3.45
2022-08-31T14:01:57.776Z,2.65
2022-08-31T14:05:00.259Z,2.58
2022-08-31T14:07:39.367Z,3.08
2022-08-31T14:10:28.283Z,2.50
2022-08-31T14:13:27.711Z,2.60
2022-08-31T14:16:02.016Z,2.75
2022-08-31T14:18:43.053Z,2.80
2022-08-31T14:21:21.148Z,3.20
2022-08-31T14:23:54.403Z,3.05
2022-08-31T14:26:26.236Z,2.70
2022-08-31T14:28:56.742Z,3.03
2022-08-31T14:31:49.132Z,2.90
2022-08-31T14:34:24.412Z,2.90
2022-08-31T14:36:57.712Z,3.20
2022-08-31T14:39:30.757Z,2.95
2022-08-31T14:42:16.974Z,2.88
2022-08-31T14:44:53.506Z,2.83
2022-08-31T14:47:27.634Z,3.30
2022-08-31T14:50:01.524Z,3.10
2022-08-31T14:52:28.356Z,3.00
2022-08-31T14:55:00.448Z,2.63
2022-08-31T14:57:27.435Z,2.90
2022-08-31T14:59:59.584Z,2.97
2022-08-31T15:02:31.560Z,2.97
2022-08-31T15:05:06.490Z,3.20
2022-08-31T15:07:37.616Z,3.30
2022-08-31T15:10:07.610Z,2.80
2022-08-31T15:12:35.331Z,3.00
2022-08-31T15:15:02.146Z,2.88
2022-08-31T15:17:33.696Z,2.92
2022-08-31T15:20:03.336Z,3.15
2022-08-31T15:22:31.823Z,3.20
2022-08-31T15:24:59.009Z,3.20
2022-08-31T15:27:28.600Z,3.40
2022-08-31T15:30:02.408Z,2.95
2022-08-31T15:32:28.976Z,3.33
2022-08-31T15:34:58.625Z,3.20
2022-08-31T15:37:30.777Z,3.30
2022-08-31T15:40:02.073Z,3.13
2022-08-31T15:42:31.314Z,2.85
2022-08-31T15:44:58.124Z,3.22
2022-08-31T15:47:47.886Z,3.40
2022-08-31T15:50:19.105Z,3.00
2022-08-31T15:52:50.988Z,3.05
2022-08-31T15:55:26.260Z,2.92
2022-08-31T15:57:58.807Z,3.03
2022-08-31T16:00:36.645Z,2.60
2022-08-31T16:03:03.820Z,2.97
2022-08-31T16:05:35.477Z,3.05
2022-08-31T16:08:02.620Z,2.92
2022-08-31T16:10:30.946Z,2.65
2022-08-31T16:12:58.020Z,2.60
2022-08-31T16:15:25.225Z,3.08
2022-08-31T16:17:57.042Z,2.97
2022-08-31T16:20:23.547Z,2.90
2022-08-31T16:22:50.066Z,2.67
2022-08-31T16:25:17.559Z,2.75
2022-08-31T16:27:47.155Z,2.80
2022-08-31T16:30:15.856Z,2.80
2022-08-31T16:32:42.517Z,2.75
2022-08-31T16:35:09.764Z,2.50
2022-08-31T16:37:36.449Z,2.92
2022-08-31T16:40:04.318Z,2.85
2022-08-31T16:42:30.882Z,3.00
2022-08-31T16:45:01.807Z,2.50
2022-08-31T16:47:29.110Z,2.65
2022-08-31T16:49:55.826Z,2.63
2022-08-31T16:52:27.080Z,2.90
2022-08-31T16:54:57.039Z,3.20
2022-08-31T16:57:28.880Z,2.80
2022-08-31T16:59:57.327Z,2.70
2022-08-31T17:02:25.138Z,2.88
2022-08-31T17:04:54.295Z,3.17
2022-08-31T17:07:24.509Z,3.15
2022-08-31T17:09:56.429Z,2.95
2022-08-31T17:12:27.159Z,2.90
2022-08-31T17:14:53.964Z,2.70
2022-08-31T17:17:25.175Z,2.88
2022-08-31T17:19:55.776Z,2.60
2022-08-31T17:22:31.685Z,2.67
2022-08-31T17:25:04.568Z,2.97
2022-08-31T17:27:34.590Z,3.00
2022-08-31T17:30:05.638Z,3.05
2022-08-31T17:32:32.549Z,2.55
2022-08-31T17:34:59.837Z,3.05
2022-08-31T17:37:32.640Z,3.05
2022-08-31T17:40:00.222Z,3.50
2022-08-31T17:42:27.915Z,2.50
2022-08-31T17:44:56.678Z,4.75
2022-08-31T17:47:25.907Z,3.00
2022-08-31T17:49:52.941Z,2.70
2022-08-31T17:52:21.340Z,2.85
2022-08-31T17:54:50.407Z,3.13
2022-08-31T17:57:24.805Z,2.50
2022-08-31T17:59:52.861Z,3.30
2022-08-31T18:02:34.398Z,3.28
2022-08-31T18:05:02.323Z,2.50
2022-08-31T18:07:29.218Z,2.80
2022-08-31T18:09:56.576Z,2.65
2022-08-31T18:12:25.379Z,3.10
2022-08-31T18:14:58.057Z,2.47
2022-08-31T18:17:26.393Z,2.50
2022-08-31T18:19:54.566Z,2.60
2022-08-31T18:22:21.580Z,2.25
2022-08-31T18:24:48.144Z,2.92
2022-08-31T18:27:15.346Z,2.80
2022-08-31T18:29:44.033Z,2.63
2022-08-31T18:32:11.375Z,2.50
2022-08-31T18:34:46.899Z,2.60
2022-08-31T18:37:15.717Z,2.45
2022-08-31T18:40:04.185Z,2.55
2022-08-31T18:42:51.673Z,2.53
2022-08-31T18:45:19.384Z,2.50
2022-08-31T18:48:20.777Z,2.30
2022-08-31T18:50:44.091Z,3.28
2022-08-31T18:53:15.130Z,2.95
2022-08-31T18:55:45.672Z,2.47
2022-08-31T18:58:12.636Z,2.38
2022-08-31T19:00:40.152Z,2.30
2022-08-31T19:03:07.254Z,2.58
2022-08-31T19:05:39.890Z,2.47
2022-08-31T19:08:06.875Z,2.40
2022-08-31T19:10:34.695Z,2.22
2022-08-31T19:13:05.407Z,2.30
2022-08-31T19:15:39.803Z,2.08
2022-08-31T19:18:07.383Z,2.50
2022-08-31T19:20:35.412Z,2.67
2022-08-31T19:23:02.323Z,2.40
2022-08-31T19:25:29.155Z,2.58
2022-08-31T19:27:55.992Z,2.28
2022-08-31T19:30:27.887Z,2.60
2022-08-31T19:32:56.218Z,2.60
2022-08-31T19:35:25.821Z,2.33
2022-08-31T19:37:53.622Z,2.30
2022-08-31T19:40:20.279Z,2.20
2022-08-31T19:43:42.913Z,2.20
2022-08-31T19:45:43.595Z,2.20
2022-08-31T19:48:12.131Z,2.83
2022-08-31T19:50:41.970Z,2.25
2022-08-31T19:53:11.622Z,2.00
2022-08-31T19:55:50.011Z,2.53
2022-08-31T19:58:22.398Z,1.98
2022-08-31T20:00:49.827Z,2.10
2022-08-31T20:03:19.094Z,2.40
2022-08-31T20:05:46.766Z,2.30
2022-08-31T20:08:13.319Z,2.55
2022-08-31T20:10:45.944Z,2.20
2022-08-31T20:13:13.208Z,2.40
2022-08-31T20:15:45.008Z,2.20
2022-08-31T20:18:12.461Z,2.10
2022-08-31T20:20:45.848Z,2.35
2022-08-31T20:23:16.259Z,2.10
2022-08-31T20:25:45.583Z,2.13
2022-08-31T20:28:13.834Z,2.20
2022-08-31T20:30:43.273Z,2.70
2022-08-31T20:33:11.695Z,2.53
2022-08-31T20:35:47.192Z,2.40
2022-08-31T20:38:18.350Z,2.53
2022-08-31T20:40:48.134Z,2.30
2022-08-31T20:43:15.060Z,2.30
2022-08-31T20:45:42.368Z,2.58
2022-08-31T20:48:28.984Z,2.05
2022-08-31T20:50:57.234Z,2.20
2022-08-31T20:53:42.491Z,2.28
2022-08-31T20:56:17.505Z,3.10
2022-08-31T20:58:46.441Z,3.70
2022-08-31T21:01:14.051Z,2.53
2022-08-31T21:03:41.449Z,2.70
2022-08-31T21:06:11.493Z,2.55
2022-08-31T21:08:40.820Z,2.17
2022-08-31T21:11:17.697Z,2.60
2022-08-31T21:13:46.448Z,2.20
2022-08-31T21:16:14.976Z,2.00
2022-08-31T21:18:41.725Z,2.15
2022-08-31T21:21:17.399Z,2.50
2022-08-31T21:23:46.800Z,2.30
2022-08-31T21:26:26.576Z,2.63
2022-08-31T21:28:56.613Z,2.08
2022-08-31T21:31:28.978Z,2.40
2022-08-31T21:34:00.549Z,2.35
2022-08-31T21:36:29.651Z,2.10
2022-08-31T21:38:59.607Z,2.30
2022-08-31T21:41:28.732Z,1.98
2022-08-31T21:43:57.571Z,2.28
2022-08-31T21:46:28.821Z,1.90
2022-08-31T21:48:59.019Z,1.90
2022-08-31T21:51:37.293Z,2.15
2022-08-31T21:54:08.920Z,2.03
2022-08-31T21:56:44.050Z,2.03
2022-08-31T21:59:14.008Z,1.95
2022-08-31T22:01:41.648Z,2.25
2022-08-31T22:04:10.169Z,2.33
2022-08-31T22:06:38.148Z,1.98
2022-08-31T22:09:15.716Z,1.73
2022-08-31T22:11:46.470Z,2.10
2022-08-31T22:14:17.679Z,1.90
2022-08-31T22:16:46.774Z,2.25
2022-08-31T22:19:18.412Z,1.80
2022-08-31T22:21:49.351Z,1.85
2022-08-31T22:24:27.365Z,2.22
2022-08-31T22:26:57.879Z,2.10
2022-08-31T22:29:29.090Z,2.00
2022-08-31T22:32:01.643Z,2.15
2022-08-31T22:34:28.938Z,2.20
2022-08-31T22:36:56.572Z,2.20
2022-08-31T22:39:29.672Z,2.20
2022-08-31T22:41:58.780Z,2.20
2022-08-31T22:44:32.261Z,2.20
2022-08-31T22:46:59.116Z,1.83
2022-08-31T22:49:26.982Z,2.10
2022-08-31T22:51:54.711Z,2.22
2022-08-31T22:54:23.367Z,1.92
2022-08-31T22:56:52.003Z,2.90
2022-08-31T22:59:27.250Z,2.10
2022-08-31T23:02:03.201Z,2.28
2022-08-31T23:04:34.205Z,2.30
2022-08-31T23:07:03.466Z,2.00
2022-08-31T23:09:31.072Z,2.13
2022-08-31T23:12:00.899Z,2.10
2022-08-31T23:14:29.251Z,2.10
2022-08-31T23:16:59.731Z,2.25
2022-08-31T23:19:54.155Z,2.10
2022-08-31T23:22:24.450Z,2.20
2022-08-31T23:24:51.709Z,2.30
2022-08-31T23:27:21.624Z,1.80
2022-08-31T23:29:56.434Z,2.15
2022-08-31T23:32:27.741Z,2.15
2022-08-31T23:34:57.256Z,2.33
2022-08-31T23:37:26.237Z,2.00
2022-08-31T23:39:54.629Z,2.50
2022-08-31T23:42:24.395Z,2.05
2022-08-31T23:44:52.151Z,1.88
2022-08-31T23:47:26.591Z,2.05
2022-08-31T23:49:53.627Z,2.10
2022-08-31T23:52:27.490Z,1.67
2022-08-31T23:54:59.216Z,2.00
2022-08-31T23:57:32.164Z,2.08
